createdAt,value
2022-11-17T00:00:01.662Z,99.97
2022-11-17T00:02:52.873Z,99.88
2022-11-17T00:05:25.557Z,99.88
2022-11-17T00:08:02.411Z,99.88
2022-11-17T00:10:40.786Z,99.81
2022-11-17T00:13:37.003Z,99.77
2022-11-17T00:16:19.223Z,99.83
2022-11-17T00:19:23.686Z,99.79
2022-11-17T00:22:20.915Z,99.65
2022-11-17T00:24:54.024Z,99.84
2022-11-17T00:27:29.667Z,99.59
2022-11-17T00:30:00.668Z,99.54
2022-11-17T00:32:49.021Z,99.71
2022-11-17T00:35:19.414Z,99.72
2022-11-17T00:38:08.100Z,99.61
2022-11-17T00:40:39.956Z,99.63
2022-11-17T00:43:11.771Z,99.66
2022-11-17T00:45:45.429Z,99.61
2022-11-17T00:48:18.456Z,99.71
2022-11-17T00:50:51.089Z,99.66
2022-11-17T00:53:23.092Z,99.89
2022-11-17T00:55:56.086Z,99.73
2022-11-17T00:58:40.162Z,99.51
2022-11-17T01:01:15.270Z,99.45
2022-11-17T01:03:48.525Z,99.50
2022-11-17T01:06:21.224Z,99.73
2022-11-17T01:09:04.575Z,99.71
2022-11-17T01:11:37.896Z,99.74
2022-11-17T01:14:08.033Z,99.50
2022-11-17T01:16:39.549Z,99.42
2022-11-17T01:19:18.639Z,99.73
2022-11-17T01:22:01.610Z,99.48
2022-11-17T01:24:35.661Z,99.68
2022-11-17T01:27:06.594Z,99.58
2022-11-17T01:29:41.933Z,99.71
2022-11-17T01:32:20.458Z,99.62
2022-11-17T01:34:55.434Z,99.69
2022-11-17T01:37:26.533Z,99.59
2022-11-17T01:39:55.741Z,99.78
2022-11-17T01:42:28.403Z,99.63
2022-11-17T01:45:26.921Z,99.69
2022-11-17T01:48:03.926Z,99.70
2022-11-17T01:50:38.587Z,99.81
2022-11-17T01:53:17.871Z,99.63
2022-11-17T01:55:55.989Z,99.87
2022-11-17T01:58:31.742Z,99.82
2022-11-17T02:01:03.295Z,99.95
2022-11-17T02:03:40.199Z,99.94
2022-11-17T02:06:17.442Z,99.90
2022-11-17T02:08:56.281Z,100.00
2022-11-17T02:11:36.649Z,100.00
2022-11-17T02:14:16.101Z,100.00
2022-11-17T02:16:52.131Z,100.00
2022-11-17T02:19:51.136Z,100.00
2022-11-17T02:22:48.801Z,100.00
2022-11-17T02:25:37.793Z,100.00
2022-11-17T02:28:54.688Z,100.00
2022-11-17T02:31:37.976Z,100.00
2022-11-17T02:34:40.076Z,100.00
2022-11-17T02:37:27.809Z,100.00
2022-11-17T02:40:13.279Z,99.98
2022-11-17T02:43:13.361Z,100.00
2022-11-17T02:46:01.986Z,99.94
2022-11-17T02:49:07.220Z,99.96
2022-11-17T02:51:43.988Z,100.00
2022-11-17T02:54:13.501Z,99.98
2022-11-17T02:56:56.892Z,99.83
2022-11-17T02:59:54.058Z,99.71
2022-11-17T03:02:27.208Z,99.72
2022-11-17T03:05:13.884Z,99.66
2022-11-17T03:08:11.781Z,99.72
2022-11-17T03:11:04.295Z,99.66
2022-11-17T03:13:39.905Z,99.69
2022-11-17T03:16:30.768Z,99.56
2022-11-17T03:19:25.723Z,99.63
2022-11-17T03:22:19.989Z,99.48
2022-11-17T03:25:02.480Z,99.41
2022-11-17T03:27:53.599Z,99.42
2022-11-17T03:30:37.335Z,99.33
2022-11-17T03:33:25.619Z,99.34
2022-11-17T03:36:18.501Z,99.17
2022-11-17T03:39:13.179Z,99.32
2022-11-17T03:42:06.625Z,99.33
2022-11-17T03:44:45.482Z,99.41
2022-11-17T03:47:41.229Z,99.34
2022-11-17T03:50:43.238Z,99.54
2022-11-17T03:53:12.596Z,99.54
2022-11-17T03:56:06.201Z,99.67
2022-11-17T03:59:07.216Z,99.60
2022-11-17T04:01:49.122Z,99.89
2022-11-17T04:04:26.144Z,99.92
2022-11-17T04:06:59.576Z,99.94
2022-11-17T04:09:30.025Z,99.80
2022-11-17T04:12:29.157Z,99.87
2022-11-17T04:15:17.028Z,99.88
2022-11-17T04:17:49.089Z,99.97
2022-11-17T04:20:26.663Z,99.99
2022-11-17T04:23:11.561Z,99.85
2022-11-17T04:26:14.916Z,99.91
2022-11-17T04:28:49.448Z,99.83
2022-11-17T04:31:20.222Z,99.73
2022-11-17T04:33:54.137Z,99.68
2022-11-17T04:36:42.464Z,99.70
2022-11-17T04:39:13.476Z,99.82
2022-11-17T04:41:57.863Z,99.73
2022-11-17T04:44:31.667Z,99.57
2022-11-17T04:47:02.482Z,99.48
2022-11-17T04:49:35.832Z,99.45
2022-11-17T04:52:04.316Z,99.36
2022-11-17T04:54:33.053Z,99.24
2022-11-17T04:57:01.182Z,99.37
2022-11-17T04:59:29.472Z,99.21
2022-11-17T05:02:01.150Z,99.20
2022-11-17T05:04:51.171Z,99.01
2022-11-17T05:07:19.293Z,99.03
2022-11-17T05:09:47.366Z,98.69
2022-11-17T05:12:34.456Z,98.81
2022-11-17T05:15:02.579Z,98.75
2022-11-17T05:17:30.844Z,98.78
2022-11-17T05:19:58.912Z,98.72
2022-11-17T05:23:07.056Z,98.58
2022-11-17T05:25:35.352Z,98.49
2022-11-17T05:28:07.067Z,98.58
2022-11-17T05:30:42.762Z,98.61
2022-11-17T05:33:13.857Z,98.57
2022-11-17T05:35:48.041Z,98.54
2022-11-17T05:38:18.428Z,98.56
2022-11-17T05:40:46.989Z,98.51
2022-11-17T05:43:19.308Z,98.55
2022-11-17T05:45:50.596Z,98.56
2022-11-17T05:48:20.382Z,98.50
2022-11-17T05:50:54.721Z,98.51
2022-11-17T05:53:24.434Z,98.48
2022-11-17T05:56:29.036Z,98.52
2022-11-17T05:59:08.150Z,98.49
2022-11-17T06:01:43.195Z,98.52
2022-11-17T06:04:22.344Z,98.32
2022-11-17T06:06:51.265Z,98.49
2022-11-17T06:09:21.006Z,98.46
2022-11-17T06:11:49.958Z,98.47
2022-11-17T06:14:18.439Z,98.43
2022-11-17T06:16:53.968Z,98.34
2022-11-17T06:19:32.236Z,98.39
2022-11-17T06:22:16.595Z,98.19
2022-11-17T06:24:46.467Z,98.32
2022-11-17T06:27:20.320Z,98.23
2022-11-17T06:29:50.072Z,98.22
2022-11-17T06:32:20.082Z,98.08
2022-11-17T06:34:55.554Z,98.24
2022-11-17T06:37:25.238Z,98.07
2022-11-17T06:39:54.578Z,98.03
2022-11-17T06:42:43.446Z,98.17
2022-11-17T06:45:12.501Z,98.09
2022-11-17T06:47:41.251Z,97.93
2022-11-17T06:50:12.310Z,98.06
2022-11-17T06:52:42.008Z,98.17
2022-11-17T06:55:16.038Z,98.00
2022-11-17T06:57:52.946Z,97.93
2022-11-17T07:00:21.929Z,97.98
2022-11-17T07:02:51.558Z,97.94
2022-11-17T07:05:21.011Z,97.83
2022-11-17T07:07:52.598Z,97.83
2022-11-17T07:10:20.842Z,97.98
2022-11-17T07:12:51.899Z,97.78
2022-11-17T07:15:20.613Z,97.81
2022-11-17T07:17:49.242Z,97.63
2022-11-17T07:20:19.981Z,97.75
2022-11-17T07:22:52.690Z,97.48
2022-11-17T07:25:23.317Z,97.53
2022-11-17T07:28:00.808Z,97.40
2022-11-17T07:30:29.572Z,97.29
2022-11-17T07:33:00.607Z,97.29
2022-11-17T07:35:29.408Z,97.19
2022-11-17T07:38:02.327Z,97.12
2022-11-17T07:40:30.909Z,97.27
2022-11-17T07:42:59.156Z,97.20
2022-11-17T07:45:31.767Z,97.30
2022-11-17T07:48:06.041Z,97.24
2022-11-17T07:50:35.399Z,97.17
2022-11-17T07:53:03.630Z,97.13
2022-11-17T07:55:31.963Z,97.07
2022-11-17T07:58:03.373Z,97.14
2022-11-17T08:00:33.916Z,97.10
2022-11-17T08:03:04.627Z,97.00
2022-11-17T08:05:43.535Z,96.78
2022-11-17T08:08:18.161Z,96.81
2022-11-17T08:10:48.213Z,96.60
2022-11-17T08:13:16.429Z,96.60
2022-11-17T08:15:45.207Z,96.61
2022-11-17T08:18:21.537Z,96.81
2022-11-17T08:20:52.492Z,96.62
2022-11-17T08:23:23.281Z,96.54
2022-11-17T08:25:51.471Z,96.45
2022-11-17T08:28:19.583Z,96.41
2022-11-17T08:30:50.820Z,96.31
2022-11-17T08:33:19.059Z,96.33
2022-11-17T08:35:49.309Z,96.31
2022-11-17T08:38:21.322Z,96.27
2022-11-17T08:40:51.716Z,96.10
2022-11-17T08:43:20.190Z,96.31
2022-11-17T08:45:48.870Z,96.18
2022-11-17T08:48:20.524Z,96.18
2022-11-17T08:50:49.151Z,95.87
2022-11-17T08:53:24.160Z,96.19
2022-11-17T08:55:52.442Z,96.06
2022-11-17T08:58:20.947Z,96.00
2022-11-17T09:00:49.593Z,95.95
2022-11-17T09:03:18.038Z,95.73
2022-11-17T09:05:47.531Z,95.59
2022-11-17T09:11:14.631Z,95.76
2022-11-17T09:13:43.529Z,95.63
2022-11-17T09:16:16.764Z,95.57
2022-11-17T09:18:48.375Z,95.60
2022-11-17T09:21:17.271Z,95.40
2022-11-17T09:23:45.982Z,95.38
2022-11-17T09:26:16.456Z,95.30
2022-11-17T09:28:45.541Z,95.22
2022-11-17T09:31:25.754Z,95.30
2022-11-17T09:34:04.862Z,95.11
2022-11-17T09:36:37.692Z,95.14
2022-11-17T09:39:06.062Z,95.16
2022-11-17T09:41:44.470Z,95.03
2022-11-17T09:44:40.647Z,94.71
2022-11-17T09:47:21.238Z,94.95
2022-11-17T09:49:58.631Z,94.85
2022-11-17T09:53:15.248Z,94.76
2022-11-17T09:55:51.661Z,94.69
2022-11-17T09:58:52.236Z,94.62
2022-11-17T10:01:27.929Z,94.65
2022-11-17T10:04:00.351Z,94.43
2022-11-17T10:06:31.245Z,94.19
2022-11-17T10:09:03.074Z,94.16
2022-11-17T10:11:36.238Z,94.15
2022-11-17T10:14:19.360Z,94.24
2022-11-17T10:16:56.677Z,94.09
2022-11-17T10:19:38.826Z,94.10
2022-11-17T10:22:16.394Z,94.11
2022-11-17T10:24:51.599Z,93.78
2022-11-17T10:27:30.442Z,93.74
2022-11-17T10:30:07.304Z,93.67
2022-11-17T10:32:48.543Z,93.69
2022-11-17T10:35:26.032Z,93.76
2022-11-17T10:37:59.325Z,93.61
2022-11-17T10:40:46.896Z,93.40
2022-11-17T10:43:17.157Z,93.37
2022-11-17T10:45:59.027Z,93.34
2022-11-17T10:48:39.483Z,93.33
2022-11-17T10:51:19.897Z,93.17
2022-11-17T10:54:21.669Z,93.09
2022-11-17T10:56:55.199Z,92.66
2022-11-17T10:59:31.484Z,92.76
2022-11-17T11:02:37.003Z,92.70
2022-11-17T11:05:25.621Z,92.64
2022-11-17T11:08:22.666Z,92.70
2022-11-17T11:11:44.293Z,92.53
2022-11-17T11:14:49.362Z,92.43
2022-11-17T11:17:21.123Z,92.57
2022-11-17T11:19:53.828Z,92.60
2022-11-17T11:22:36.997Z,92.70
2022-11-17T11:25:30.341Z,92.63
2022-11-17T11:28:35.788Z,92.65
2022-11-17T11:31:35.105Z,92.52
2022-11-17T11:34:19.664Z,92.41
2022-11-17T11:37:00.376Z,92.43
2022-11-17T11:39:54.149Z,92.26
2022-11-17T11:42:32.311Z,92.13
2022-11-17T11:45:19.550Z,92.33
2022-11-17T11:48:09.112Z,92.18
2022-11-17T11:50:47.714Z,92.11
2022-11-17T11:53:31.158Z,91.95
2022-11-17T11:56:45.770Z,91.86
2022-11-17T11:59:23.141Z,91.73
2022-11-17T12:02:03.947Z,91.81
2022-11-17T12:05:00.409Z,91.60
2022-11-17T12:07:52.861Z,91.62
2022-11-17T12:10:34.671Z,91.50
2022-11-17T12:13:05.481Z,91.43
2022-11-17T12:15:38.224Z,91.33
2022-11-17T12:18:19.286Z,91.31
2022-11-17T12:20:57.318Z,91.12
2022-11-17T12:23:36.698Z,91.17
2022-11-17T12:26:05.592Z,91.00
2022-11-17T12:28:39.337Z,91.10
2022-11-17T12:31:43.286Z,91.02
2022-11-17T12:34:32.661Z,91.05
2022-11-17T12:37:24.260Z,90.96
2022-11-17T12:40:02.948Z,90.83
2022-11-17T12:42:35.710Z,90.89
2022-11-17T12:45:08.921Z,90.94
2022-11-17T12:47:59.420Z,90.74
2022-11-17T12:50:45.942Z,90.52
2022-11-17T12:53:29.233Z,90.79
2022-11-17T12:56:18.831Z,90.67
2022-11-17T12:58:56.177Z,90.66
2022-11-17T13:01:53.789Z,90.59
2022-11-17T13:04:31.568Z,90.54
2022-11-17T13:07:06.815Z,90.52
2022-11-17T13:09:46.862Z,90.40
2022-11-17T13:12:22.567Z,90.42
2022-11-17T13:15:03.299Z,90.50
2022-11-17T13:17:44.311Z,90.54
2022-11-17T13:20:19.661Z,90.46
2022-11-17T13:23:07.109Z,90.47
2022-11-17T13:25:35.719Z,90.35
2022-11-17T13:28:05.428Z,90.07
2022-11-17T13:30:35.898Z,90.22
2022-11-17T13:33:21.773Z,90.21
2022-11-17T13:36:05.012Z,90.36
2022-11-17T13:38:34.216Z,90.17
2022-11-17T13:41:10.364Z,90.37
2022-11-17T13:43:40.810Z,90.19
2022-11-17T13:46:09.444Z,90.26
2022-11-17T13:48:43.545Z,90.13
2022-11-17T13:51:31.154Z,89.79
2022-11-17T13:54:11.861Z,89.97
2022-11-17T13:56:49.616Z,89.65
2022-11-17T13:59:27.417Z,89.62
2022-11-17T14:02:19.608Z,89.64
2022-11-17T14:05:20.037Z,89.81
2022-11-17T14:07:50.570Z,89.66
2022-11-17T14:10:22.160Z,89.63
2022-11-17T14:13:19.019Z,89.68
2022-11-17T14:15:58.232Z,89.61
2022-11-17T14:18:38.805Z,89.53
2022-11-17T14:21:17.441Z,89.44
2022-11-17T14:28:22.729Z,89.28
2022-11-17T14:31:25.886Z,89.09
2022-11-17T14:34:36.800Z,89.23
2022-11-17T14:37:40.900Z,89.12
2022-11-17T14:40:49.803Z,89.20
2022-11-17T14:44:02.418Z,88.99
2022-11-17T14:46:54.124Z,89.12
2022-11-17T14:53:24.159Z,89.19
2022-11-17T14:56:18.385Z,89.27
2022-11-17T15:02:07.405Z,89.21
2022-11-17T15:04:51.205Z,89.01
2022-11-17T15:07:49.391Z,88.93
2022-11-17T15:10:43.421Z,88.94
2022-11-17T15:13:54.414Z,89.06
2022-11-17T15:16:44.537Z,88.89
2022-11-17T15:19:49.245Z,88.96
2022-11-17T15:22:46.764Z,88.99
2022-11-17T15:25:52.129Z,88.94
2022-11-17T15:28:57.362Z,88.87
2022-11-17T15:31:46.442Z,88.94
2022-11-17T15:34:23.141Z,88.74
2022-11-17T15:37:20.868Z,88.90
2022-11-17T15:40:19.190Z,88.73
2022-11-17T15:43:46.429Z,88.72
2022-11-17T15:46:58.017Z,88.90
2022-11-17T15:50:09.322Z,88.97
2022-11-17T15:53:19.253Z,88.88
2022-11-17T15:56:16.172Z,88.80
2022-11-17T15:59:15.946Z,88.74
2022-11-17T16:02:20.178Z,88.64
2022-11-17T16:05:25.805Z,88.76
2022-11-17T16:08:23.747Z,88.63
2022-11-17T16:11:12.063Z,88.58
2022-11-17T16:14:26.592Z,88.35
2022-11-17T16:17:38.111Z,88.29
2022-11-17T16:20:52.917Z,88.33
2022-11-17T16:24:25.555Z,88.20
2022-11-17T16:27:45.773Z,88.22
2022-11-17T16:30:35.701Z,88.26
2022-11-17T16:33:25.006Z,88.02
2022-11-17T16:36:09.018Z,88.14
2022-11-17T16:39:00.741Z,87.95
2022-11-17T16:42:01.375Z,87.88
2022-11-17T16:44:44.235Z,87.67
2022-11-17T16:47:30.484Z,87.51
2022-11-17T16:50:08.617Z,87.62
2022-11-17T16:52:46.581Z,87.41
2022-11-17T16:55:32.132Z,87.28
2022-11-17T17:02:30.951Z,87.32
2022-11-17T17:09:11.183Z,86.94
2022-11-17T17:12:29.659Z,86.83
2022-11-17T17:15:21.569Z,86.64
2022-11-17T17:18:03.668Z,86.67
2022-11-17T17:20:53.506Z,86.37
2022-11-17T17:23:39.849Z,86.41
2022-11-17T17:30:24.111Z,86.23
2022-11-17T17:33:11.357Z,86.30
2022-11-17T17:36:42.153Z,85.95
2022-11-17T17:39:40.209Z,85.97
2022-11-17T17:42:57.975Z,85.90
2022-11-17T17:45:53.576Z,85.67
2022-11-17T18:11:46.295Z,85.90
2022-11-17T18:14:24.867Z,85.98
2022-11-17T18:16:54.948Z,86.16
2022-11-17T18:19:35.882Z,86.36
2022-11-17T18:22:09.928Z,86.37
2022-11-17T18:24:38.709Z,86.52
2022-11-17T18:27:10.310Z,86.25
2022-11-17T18:29:39.122Z,86.31
2022-11-17T18:32:14.589Z,86.21
2022-11-17T18:34:48.149Z,86.12
2022-11-17T18:37:16.433Z,86.09
2022-11-17T18:39:44.853Z,86.44
2022-11-17T18:42:13.900Z,86.23
2022-11-17T18:44:42.665Z,86.03
2022-11-17T18:47:16.084Z,86.23
2022-11-17T18:49:47.089Z,85.97
2022-11-17T18:52:17.443Z,86.14
2022-11-17T18:54:46.810Z,86.31
2022-11-17T18:57:19.390Z,86.32
2022-11-17T18:59:52.260Z,86.31
2022-11-17T19:02:23.177Z,86.17
2022-11-17T19:04:57.460Z,86.56
2022-11-17T19:07:25.913Z,86.28
2022-11-17T19:09:55.939Z,86.31
2022-11-17T19:12:25.961Z,86.40
2022-11-17T19:15:03.296Z,86.32
2022-11-17T19:17:40.159Z,86.47
2022-11-17T19:20:15.354Z,86.43
2022-11-17T19:22:45.728Z,86.58
2022-11-17T19:25:14.936Z,86.51
2022-11-17T19:27:43.224Z,86.74
2022-11-17T19:30:12.025Z,86.48
2022-11-17T19:32:42.509Z,86.57
2022-11-17T19:35:18.343Z,86.46
2022-11-17T19:37:51.876Z,86.64
2022-11-17T19:40:25.551Z,86.33
2022-11-17T19:42:57.939Z,86.69
2022-11-17T19:45:27.042Z,86.53
2022-11-17T19:47:55.868Z,86.53
2022-11-17T19:50:24.924Z,86.76
2022-11-17T19:52:57.329Z,86.93
2022-11-17T19:55:27.036Z,86.83
2022-11-17T19:57:59.105Z,86.97
2022-11-17T20:00:27.937Z,86.88
2022-11-17T20:02:57.456Z,86.74
2022-11-17T20:05:28.325Z,86.83
2022-11-17T20:07:58.993Z,86.90
2022-11-17T20:10:30.229Z,86.88
2022-11-17T20:13:01.980Z,86.84
2022-11-17T20:15:35.227Z,86.59
2022-11-17T20:18:06.305Z,87.00
2022-11-17T20:20:40.139Z,86.76
2022-11-17T20:23:15.433Z,86.79
2022-11-17T20:25:52.297Z,86.81
2022-11-17T20:28:40.891Z,86.68
2022-11-17T20:31:36.677Z,86.89
2022-11-17T20:34:10.116Z,87.08
2022-11-17T20:36:39.801Z,87.03
2022-11-17T20:39:11.141Z,87.16
2022-11-17T20:41:43.506Z,87.14
2022-11-17T20:44:24.768Z,86.71
2022-11-17T20:46:57.070Z,86.87
2022-11-17T20:49:29.439Z,86.84
2022-11-17T20:52:03.026Z,87.23
2022-11-17T20:54:32.454Z,87.14
2022-11-17T20:57:01.265Z,87.16
2022-11-17T20:59:29.425Z,87.09
2022-11-17T21:01:57.636Z,87.26
2022-11-17T21:04:25.943Z,87.28
2022-11-17T21:06:56.287Z,87.40
2022-11-17T21:09:24.659Z,87.14
2022-11-17T21:11:59.403Z,87.22
2022-11-17T21:14:28.550Z,87.20
2022-11-17T21:17:00.758Z,87.25
2022-11-17T21:19:37.857Z,87.25
2022-11-17T21:22:07.159Z,87.14
2022-11-17T21:24:35.737Z,87.48
2022-11-17T21:27:03.945Z,87.35
2022-11-17T21:29:33.724Z,87.56
2022-11-17T21:32:05.687Z,87.31
2022-11-17T21:34:33.968Z,87.32
2022-11-17T21:37:02.362Z,87.32
2022-11-17T21:39:31.247Z,87.44
2022-11-17T21:42:00.354Z,87.48
2022-11-17T21:44:30.158Z,87.33
2022-11-17T21:46:58.710Z,87.53
2022-11-17T21:49:26.909Z,87.47
2022-11-17T21:51:56.358Z,87.61
2022-11-17T21:54:24.742Z,87.33
2022-11-17T21:56:53.519Z,87.73
2022-11-17T21:59:21.781Z,87.59
2022-11-17T22:01:51.242Z,87.69
2022-11-17T22:04:20.875Z,87.72
2022-11-17T22:06:49.815Z,87.75
2022-11-17T22:09:21.295Z,87.94
2022-11-17T22:11:51.671Z,87.84
2022-11-17T22:14:20.407Z,87.78
2022-11-17T22:16:52.503Z,87.93
2022-11-17T22:19:24.190Z,88.05
2022-11-17T22:21:54.665Z,87.84
2022-11-17T22:24:25.520Z,87.70
2022-11-17T22:26:55.147Z,88.18
2022-11-17T22:29:25.154Z,87.85
2022-11-17T22:31:53.947Z,87.80
2022-11-17T22:34:23.309Z,88.10
2022-11-17T22:36:53.504Z,88.09
2022-11-17T22:39:22.657Z,88.03
2022-11-17T22:41:51.016Z,88.13
2022-11-17T22:44:19.418Z,87.86
2022-11-17T22:46:47.754Z,88.08
2022-11-17T22:49:16.150Z,88.21
2022-11-17T22:52:03.052Z,88.20
2022-11-17T22:54:31.914Z,88.31
2022-11-17T22:57:01.419Z,88.30
2022-11-17T22:59:30.544Z,88.05
2022-11-17T23:01:58.835Z,88.13
2022-11-17T23:04:27.151Z,88.27
2022-11-17T23:06:55.939Z,88.32
2022-11-17T23:09:24.048Z,88.17
2022-11-17T23:11:52.465Z,88.14
2022-11-17T23:14:20.618Z,88.28
2022-11-17T23:16:49.221Z,88.14
2022-11-17T23:19:18.104Z,88.11
2022-11-17T23:21:46.891Z,88.19
2022-11-17T23:24:15.889Z,88.07
2022-11-17T23:26:45.642Z,88.32
2022-11-17T23:29:16.484Z,88.25
2022-11-17T23:31:46.567Z,88.54
2022-11-17T23:34:16.727Z,88.21
2022-11-17T23:36:48.567Z,88.28
2022-11-17T23:39:19.406Z,88.44
2022-11-17T23:41:49.315Z,88.14
2022-11-17T23:44:19.259Z,88.19
2022-11-17T23:46:48.958Z,88.43
2022-11-17T23:49:17.271Z,88.33
2022-11-17T23:51:46.530Z,88.33
2022-11-17T23:54:15.298Z,88.46
2022-11-17T23:56:43.685Z,88.30
2022-11-17T23:59:12.283Z,88.48
